Time;durP1;ratioP1;P1;durP2;ratioP2;P2;SDS_P1;SDS_P2;PMS_P1;PMS_P2;Temp;Humidity;BMP_temperature;BMP_pressure;BME280_temperature;BME280_humidity;BME280_pressure;Samples;Min_cycle;Max_cycle;Signal;HPM_P1;HPM_P2
2022/10/31 00:01:18;;;;;;;4.45;3.63;;;20.40;71.50;;;;;;6208982;23;20023;-75
2022/10/31 00:03:44;;;;;;;6.88;3.80;;;20.50;71.60;;;;;;6182026;23;20023;-70
2022/10/31 00:06:10;;;;;;;8.77;3.50;;;20.40;71.90;;;;;;6236240;23;20466;-74
2022/10/31 00:08:36;;;;;;;6.05;3.88;;;20.40;71.40;;;;;;6233877;23;20012;-73
2022/10/31 00:11:02;;;;;;;5.20;3.42;;;20.40;71.40;;;;;;6209132;23;20028;-71
2022/10/31 00:13:27;;;;;;;4.70;3.70;;;20.40;71.30;;;;;;6233270;23;20016;-74
2022/10/31 00:15:53;;;;;;;6.03;3.85;;;20.40;71.30;;;;;;6208272;23;20490;-73
2022/10/31 00:18:18;;;;;;;6.63;3.38;;;20.40;71.30;;;;;;6235758;23;20328;-80
2022/10/31 00:20:44;;;;;;;4.47;3.03;;;20.40;71.30;;;;;;6185559;23;20051;-78
2022/10/31 00:23:11;;;;;;;7.28;3.03;;;20.40;71.30;;;;;;6237761;23;20024;-80
2022/10/31 00:25:39;;;;;;;6.40;3.33;;;20.40;71.30;;;;;;6208494;23;20024;-78
2022/10/31 00:28:06;;;;;;;4.72;3.22;;;20.40;71.30;;;;;;6211563;23;20020;-80
2022/10/31 00:30:32;;;;;;;4.80;3.28;;;20.30;71.20;;;;;;6234371;23;20020;-80
2022/10/31 00:32:58;;;;;;;6.03;3.17;;;20.40;71.30;;;;;;6184530;23;20625;-77
2022/10/31 00:35:23;;;;;;;5.32;3.53;;;20.40;71.30;;;;;;6236608;23;20027;-72
2022/10/31 00:37:49;;;;;;;6.07;3.30;;;20.30;71.20;;;;;;6184999;23;20102;-71
2022/10/31 00:40:14;;;;;;;5.43;3.25;;;20.30;71.20;;;;;;6237795;23;20478;-81
2022/10/31 00:42:41;;;;;;;5.05;3.30;;;20.30;71.20;;;;;;6236537;23;20012;-79
2022/10/31 00:45:11;;;;;;;5.72;3.30;;;20.30;71.20;;;;;;6185619;23;20031;-80
2022/10/31 00:47:36;;;;;;;5.28;3.38;;;20.30;71.20;;;;;;6209303;23;20024;-79
2022/10/31 00:50:04;;;;;;;6.65;3.50;;;20.30;71.20;;;;;;6237583;23;20494;-78
2022/10/31 00:52:30;;;;;;;6.20;3.43;;;20.30;71.20;;;;;;6237015;23;20753;-80
2022/10/31 00:54:55;;;;;;;5.30;2.88;;;20.30;71.20;;;;;;6236212;23;20538;-80
2022/10/31 00:57:21;;;;;;;4.13;2.90;;;20.30;71.20;;;;;;6235965;23;20333;-80
2022/10/31 00:59:46;;;;;;;6.20;3.13;;;20.30;71.20;;;;;;6209444;23;20375;-75
2022/10/31 01:02:12;;;;;;;4.88;2.97;;;20.20;71.10;;;;;;6236930;23;20020;-76
2022/10/31 01:04:37;;;;;;;4.97;2.90;;;20.30;71.20;;;;;;6206186;23;20023;-76
2022/10/31 01:07:03;;;;;;;6.15;2.90;;;20.20;71.10;;;;;;6237679;23;20028;-75
2022/10/31 01:09:28;;;;;;;4.78;3.13;;;20.30;71.20;;;;;;6236162;23;20048;-76
2022/10/31 01:11:54;;;;;;;5.50;3.13;;;20.20;71.10;;;;;;6210960;23;20391;-77
2022/10/31 01:14:20;;;;;;;4.70;2.92;;;20.20;71.10;;;;;;6234571;23;20133;-73
2022/10/31 01:16:45;;;;;;;3.97;2.92;;;20.20;71.00;;;;;;6208213;23;20095;-77
2022/10/31 01:19:11;;;;;;;3.45;2.60;;;20.20;71.00;;;;;;6208903;23;20352;-76
2022/10/31 01:21:36;;;;;;;4.10;2.88;;;20.20;71.00;;;;;;6236780;23;20028;-74
2022/10/31 01:24:02;;;;;;;6.53;3.10;;;20.20;71.00;;;;;;6238440;23;20017;-78
2022/10/31 01:26:30;;;;;;;6.00;3.20;;;20.20;70.90;;;;;;6206513;23;20016;-78
2022/10/31 01:29:01;;;;;;;4.82;2.95;;;20.20;70.90;;;;;;6237694;23;20020;-75
2022/10/31 01:31:33;;;;;;;4.32;2.85;;;20.20;70.90;;;;;;6208788;23;20031;-78
2022/10/31 01:33:59;;;;;;;5.85;3.08;;;20.20;70.90;;;;;;6234794;23;20055;-73
2022/10/31 01:36:36;;;;;;;4.13;2.72;;;20.20;70.90;;;;;;6236363;23;20023;-72
2022/10/31 01:39:11;;;;;;;5.67;2.87;;;20.20;70.90;;;;;;6208611;23;20375;-76
2022/10/31 01:41:43;;;;;;;5.30;3.13;;;20.10;70.80;;;;;;6236144;23;20239;-72
2022/10/31 01:44:15;;;;;;;3.47;2.72;;;20.10;70.80;;;;;;6233605;23;20035;-76
2022/10/31 01:47:04;;;;;;;4.43;3.00;;;20.10;70.80;;;;;;6208266;23;20119;-77
2022/10/31 01:49:54;;;;;;;3.78;2.63;;;20.10;70.70;;;;;;6236013;23;20012;-74
2022/10/31 01:52:20;;;;;;;4.53;2.90;;;20.10;70.80;;;;;;6183341;23;20024;-75
2022/10/31 01:55:15;;;;;;;5.18;2.80;;;20.20;70.80;;;;;;6234689;23;20678;-76
2022/10/31 01:57:45;;;;;;;4.80;2.70;;;20.10;70.70;;;;;;6181537;23;20472;-78
2022/10/31 02:00:11;;;;;;;4.93;2.50;;;20.20;70.80;;;;;;6239845;23;20122;-71
2022/10/31 02:02:37;;;;;;;4.13;2.45;;;20.10;70.70;;;;;;6236357;23;20016;-73
2022/10/31 02:05:09;;;;;;;4.47;2.28;;;20.10;70.70;;;;;;6206816;23;20016;-72
2022/10/31 02:08:13;;;;;;;3.95;2.70;;;20.10;70.60;;;;;;6236831;23;20567;-72
2022/10/31 02:10:42;;;;;;;4.65;2.65;;;20.10;70.70;;;;;;6088956;23;20653;-72
2022/10/31 02:13:08;;;;;;;4.05;2.35;;;20.10;70.60;;;;;;6214329;23;20027;-72
2022/10/31 02:15:36;;;;;;;5.38;2.92;;;20.10;70.60;;;;;;6238438;23;20039;-72
2022/10/31 02:18:02;;;;;;;4.47;2.65;;;20.10;70.50;;;;;;6207631;23;20020;-71
2022/10/31 02:20:35;;;;;;;7.32;3.00;;;20.10;70.50;;;;;;6239331;23;20042;-70
2022/10/31 02:23:16;;;;;;;5.07;2.85;;;20.10;70.40;;;;;;6235625;23;20519;-70
2022/10/31 02:26:00;;;;;;;4.75;2.67;;;20.10;70.40;;;;;;6239867;23;20016;-68
2022/10/31 02:28:53;;;;;;;5.10;2.78;;;20.10;70.30;;;;;;6212389;23;20099;-70
2022/10/31 02:31:43;;;;;;;4.85;2.80;;;20.10;70.30;;;;;;6237305;23;20027;-70
2022/10/31 02:34:37;;;;;;;4.78;2.50;;;20.10;70.20;;;;;;6184173;23;20130;-71
2022/10/31 02:37:12;;;;;;;6.03;3.08;;;20.10;70.10;;;;;;6238307;23;20052;-72
2022/10/31 02:39:48;;;;;;;6.20;3.30;;;20.10;70.10;;;;;;6209358;23;20058;-72
2022/10/31 02:42:24;;;;;;;3.55;2.67;;;20.10;70.10;;;;;;6238617;23;20016;-71
2022/10/31 02:45:18;;;;;;;4.82;2.85;;;20.10;70.00;;;;;;6235774;23;20020;-70
2022/10/31 02:47:45;;;;;;;3.67;2.60;;;20.10;70.00;;;;;;6156967;23;20048;-70
2022/10/31 02:50:21;;;;;;;4.25;2.80;;;20.10;70.00;;;;;;6238725;23;20020;-71
2022/10/31 02:52:51;;;;;;;5.28;2.85;;;20.10;69.90;;;;;;6209474;23;20048;-71
2022/10/31 02:55:22;;;;;;;4.63;2.75;;;20.10;69.80;;;;;;6211585;23;20020;-71
2022/10/31 02:57:49;;;;;;;5.82;2.90;;;20.10;69.80;;;;;;6209880;23;20028;-72
2022/10/31 03:00:15;;;;;;;6.22;2.55;;;20.10;69.70;;;;;;6239480;23;20020;-73
2022/10/31 03:02:54;;;;;;;3.58;2.38;;;20.10;69.70;;;;;;6210904;23;20047;-71
2022/10/31 03:06:04;;;;;;;5.22;2.85;;;20.10;69.60;;;;;;6236907;23;20406;-72
2022/10/31 03:08:40;;;;;;;4.97;2.42;;;20.10;69.40;;;;;;6086789;23;20023;-75
2022/10/31 03:11:08;;;;;;;4.65;2.75;;;20.10;69.50;;;;;;6061129;23;20026;-78
2022/10/31 03:13:50;;;;;;;4.80;2.47;;;20.10;69.50;;;;;;6148096;23;20362;-79
2022/10/31 03:16:49;;;;;;;4.47;2.63;;;20.10;69.40;;;;;;6238289;23;20020;-77
2022/10/31 03:19:31;;;;;;;6.10;2.25;;;20.20;69.40;;;;;;6235905;23;20411;-73
2022/10/31 03:22:25;;;;;;;3.80;2.47;;;20.10;69.40;;;;;;6212591;23;20066;-77
2022/10/31 03:24:52;;;;;;;4.03;2.22;;;20.10;69.30;;;;;;6185815;23;20352;-77
2022/10/31 03:27:24;;;;;;;6.57;2.65;;;20.10;69.30;;;;;;6237172;23;20047;-80
2022/10/31 03:29:54;;;;;;;4.57;2.75;;;20.10;69.20;;;;;;6210158;23;20020;-73
2022/10/31 03:32:24;;;;;;;5.13;2.47;;;20.10;69.20;;;;;;6235719;23;20012;-79
2022/10/31 03:34:55;;;;;;;3.53;2.17;;;20.00;69.10;;;;;;6237096;23;20012;-80
2022/10/31 03:37:21;;;;;;;3.78;2.80;;;20.10;69.10;;;;;;6237640;23;20020;-78
2022/10/31 03:39:49;;;;;;;4.40;2.67;;;20.10;69.10;;;;;;6210562;23;20070;-80
2022/10/31 03:42:23;;;;;;;4.25;2.30;;;20.10;69.00;;;;;;6238642;23;20399;-73
2022/10/31 03:44:58;;;;;;;4.35;2.13;;;20.00;68.90;;;;;;6210532;23;20027;-80
2022/10/31 03:47:24;;;;;;;5.60;2.45;;;20.00;69.00;;;;;;6238120;23;20150;-79
2022/10/31 03:49:50;;;;;;;3.75;2.40;;;20.00;69.00;;;;;;6208049;23;20047;-80
2022/10/31 03:52:53;;;;;;;2.95;1.88;;;20.00;69.00;;;;;;6236930;23;20012;-72
2022/10/31 03:55:27;;;;;;;4.25;2.20;;;20.00;68.90;;;;;;6236727;23;20039;-77
2022/10/31 03:58:12;;;;;;;3.85;2.10;;;20.00;68.90;;;;;;6236127;23;20070;-71
2022/10/31 04:00:44;;;;;;;3.78;2.28;;;20.00;68.90;;;;;;6210324;23;20047;-73
2022/10/31 04:03:14;;;;;;;3.22;2.15;;;20.00;68.90;;;;;;6207541;23;20016;-72
2022/10/31 04:05:42;;;;;;;6.07;2.50;;;20.10;68.90;;;;;;6236539;23;20023;-71
2022/10/31 04:08:12;;;;;;;3.55;2.35;;;20.10;68.90;;;;;;6211437;23;20586;-71
2022/10/31 04:10:40;;;;;;;4.95;2.20;;;20.00;68.90;;;;;;6237359;23;20043;-74
2022/10/31 04:13:10;;;;;;;3.30;1.83;;;20.00;68.90;;;;;;6210798;23;20040;-72
2022/10/31 04:15:37;;;;;;;3.38;2.17;;;20.00;68.90;;;;;;6210247;23;20373;-79
2022/10/31 04:18:04;;;;;;;3.53;2.13;;;20.00;68.90;;;;;;6185713;23;20020;-72
2022/10/31 04:20:36;;;;;;;3.75;2.03;;;20.00;68.90;;;;;;6210277;23;20020;-71
2022/10/31 04:23:04;;;;;;;3.70;2.20;;;20.00;68.80;;;;;;6209163;23;20031;-72
2022/10/31 04:25:29;;;;;;;4.38;1.90;;;20.00;68.80;;;;;;6237804;23;20424;-74
2022/10/31 04:27:55;;;;;;;3.90;1.98;;;20.00;68.80;;;;;;6210397;23;20020;-75
2022/10/31 04:30:21;;;;;;;3.90;2.22;;;20.00;68.80;;;;;;6210693;23;20042;-77
2022/10/31 04:32:47;;;;;;;3.08;1.80;;;20.00;68.70;;;;;;6235862;23;20023;-72
2022/10/31 04:35:12;;;;;;;3.60;1.85;;;20.00;68.80;;;;;;6235772;23;20020;-79
2022/10/31 04:37:38;;;;;;;3.33;1.88;;;20.00;68.70;;;;;;6236814;23;20355;-77
2022/10/31 04:40:04;;;;;;;3.30;1.90;;;20.00;68.80;;;;;;6236594;23;20012;-76
2022/10/31 04:42:30;;;;;;;4.28;2.20;;;20.00;68.70;;;;;;6211731;23;20048;-76
2022/10/31 04:44:56;;;;;;;3.53;1.95;;;20.00;68.60;;;;;;6235870;23;20341;-77
2022/10/31 04:47:21;;;;;;;4.35;1.95;;;20.00;68.60;;;;;;6238937;23;20023;-72
2022/10/31 04:49:47;;;;;;;4.00;2.22;;;20.00;68.60;;;;;;6235511;23;20364;-76
2022/10/31 04:52:13;;;;;;;2.83;1.63;;;20.00;68.60;;;;;;6211288;23;20035;-80
2022/10/31 04:54:38;;;;;;;4.20;1.85;;;20.00;68.60;;;;;;6236422;23;20012;-78
2022/10/31 04:57:04;;;;;;;3.15;1.90;;;20.00;68.50;;;;;;6210273;23;20079;-78
2022/10/31 04:59:29;;;;;;;4.55;1.85;;;20.00;68.50;;;;;;6237615;23;20104;-79
2022/10/31 05:01:55;;;;;;;3.63;1.77;;;19.90;68.50;;;;;;6210207;23;20016;-80
2022/10/31 05:04:20;;;;;;;2.78;1.90;;;20.00;68.50;;;;;;6234484;23;20678;-81
2022/10/31 05:06:46;;;;;;;5.93;2.08;;;20.00;68.50;;;;;;6235257;23;20348;-76
2022/10/31 05:09:11;;;;;;;1.90;1.55;;;19.90;68.40;;;;;;6211669;23;20043;-80
2022/10/31 05:11:37;;;;;;;2.95;1.70;;;19.90;68.40;;;;;;6208645;23;20023;-73
2022/10/31 05:14:02;;;;;;;2.33;1.70;;;20.00;68.40;;;;;;6237154;23;20020;-80
2022/10/31 05:16:28;;;;;;;3.95;1.60;;;19.90;68.30;;;;;;6234157;23;20074;-76
2022/10/31 05:18:54;;;;;;;2.08;1.83;;;19.90;68.30;;;;;;6236142;23;20022;-77
2022/10/31 05:21:19;;;;;;;2.45;1.63;;;19.90;68.20;;;;;;6185771;23;20103;-80
2022/10/31 05:23:45;;;;;;;3.25;1.90;;;19.90;68.20;;;;;;6236257;23;20016;-80
2022/10/31 05:26:11;;;;;;;2.33;1.52;;;19.90;68.20;;;;;;6237488;23;20013;-80
2022/10/31 05:28:36;;;;;;;2.30;1.50;;;19.90;68.20;;;;;;6208743;23;20099;-78
2022/10/31 05:31:02;;;;;;;2.67;1.50;;;19.90;68.20;;;;;;6236222;23;20023;-80
2022/10/31 05:33:27;;;;;;;3.78;1.60;;;19.90;68.10;;;;;;6208293;23;20020;-80
2022/10/31 05:35:53;;;;;;;2.03;1.60;;;19.90;68.00;;;;;;6236551;23;20442;-75
2022/10/31 05:38:21;;;;;;;;;;;19.90;68.00;;;;;;6209820;23;20024;-79
2022/10/31 05:40:47;;;;;;;1.83;1.35;;;19.90;68.00;;;;;;6209599;23;20012;-79
2022/10/31 05:43:12;;;;;;;2.50;1.70;;;19.90;68.10;;;;;;6236665;23;20321;-75
2022/10/31 05:45:38;;;;;;;2.85;1.60;;;19.90;68.00;;;;;;6206773;23;20020;-78
2022/10/31 05:48:04;;;;;;;3.35;1.67;;;19.90;68.00;;;;;;6184182;23;20028;-79
2022/10/31 05:50:31;;;;;;;1.95;1.50;;;19.90;67.90;;;;;;6236347;23;20047;-80
2022/10/31 05:53:03;;;;;;;2.58;1.60;;;19.90;67.90;;;;;;6237014;23;20057;-77
2022/10/31 05:55:29;;;;;;;2.10;1.50;;;19.90;67.90;;;;;;6236535;23;20016;-76
2022/10/31 05:57:55;;;;;;;1.88;1.38;;;19.90;67.90;;;;;;6235613;23;20326;-79
2022/10/31 06:00:22;;;;;;;2.05;1.50;;;19.90;67.90;;;;;;6235366;23;20351;-80
2022/10/31 06:02:48;;;;;;;2.67;1.48;;;19.90;67.90;;;;;;6233883;23;20463;-77
2022/10/31 06:05:14;;;;;;;1.83;1.50;;;19.90;67.80;;;;;;6210291;23;20027;-78
2022/10/31 06:07:40;;;;;;;1.98;1.63;;;19.90;67.80;;;;;;6235300;23;20578;-76
2022/10/31 06:10:07;;;;;;;2.47;1.40;;;19.90;67.80;;;;;;6237277;23;20099;-76
2022/10/31 06:12:37;;;;;;;1.95;1.52;;;19.90;67.80;;;;;;6208958;23;20059;-80
2022/10/31 06:15:07;;;;;;;2.75;1.30;;;19.90;67.80;;;;;;6235740;23;20056;-77
2022/10/31 06:17:34;;;;;;;4.65;1.70;;;19.90;67.90;;;;;;6208701;23;20032;-79
2022/10/31 06:20:00;;;;;;;4.38;1.70;;;19.90;67.90;;;;;;6209136;23;20031;-77
2022/10/31 06:22:26;;;;;;;4.13;1.80;;;19.90;68.00;;;;;;6237382;23;20440;-78
2022/10/31 06:24:51;;;;;;;4.68;1.58;;;19.90;68.10;;;;;;6234518;23;20066;-77
2022/10/31 06:27:17;;;;;;;5.47;1.70;;;19.90;68.20;;;;;;6237519;23;20025;-76
2022/10/31 06:29:42;;;;;;;3.95;1.55;;;19.90;68.30;;;;;;6209077;23;20024;-78
2022/10/31 06:32:12;;;;;;;3.33;1.77;;;19.90;68.30;;;;;;6238293;23;20099;-78
2022/10/31 06:34:38;;;;;;;4.78;1.90;;;19.80;68.40;;;;;;6207996;23;20020;-78
2022/10/31 06:37:09;;;;;;;5.80;1.75;;;19.80;68.50;;;;;;6203650;23;20770;-77
2022/10/31 06:39:35;;;;;;;4.90;1.90;;;19.80;68.50;;;;;;6209197;23;20456;-77
2022/10/31 06:42:01;;;;;;;7.30;1.60;;;19.80;68.50;;;;;;6183332;23;20059;-77
2022/10/31 06:44:27;;;;;;;2.88;1.58;;;19.80;68.60;;;;;;6210862;23;20013;-79
2022/10/31 06:46:53;;;;;;;4.78;1.70;;;19.80;68.60;;;;;;6237534;23;20456;-80
2022/10/31 06:49:18;;;;;;;2.67;1.65;;;19.80;68.60;;;;;;6210333;23;20109;-80
2022/10/31 06:51:47;;;;;;;2.63;1.60;;;19.80;68.60;;;;;;6210841;23;20020;-82
2022/10/31 06:54:13;;;;;;;3.47;1.77;;;19.80;68.60;;;;;;6211385;23;20103;-79
2022/10/31 06:56:38;;;;;;;2.25;1.50;;;19.80;68.60;;;;;;6238497;23;20063;-78
2022/10/31 06:59:04;;;;;;;7.13;1.50;;;19.80;68.60;;;;;;6210868;23;20024;-77
2022/10/31 07:01:29;;;;;;;3.70;1.60;;;19.80;68.60;;;;;;6210275;23;20020;-75
2022/10/31 07:03:55;;;;;;;4.20;1.27;;;19.80;68.60;;;;;;6209462;23;20380;-74
2022/10/31 07:06:20;;;;;;;3.30;1.60;;;19.80;68.60;;;;;;6237990;23;20149;-76
2022/10/31 07:08:46;;;;;;;3.00;1.50;;;19.80;68.60;;;;;;6210480;23;20051;-74
2022/10/31 07:11:12;;;;;;;2.20;1.40;;;19.90;68.70;;;;;;6211570;23;20023;-76
2022/10/31 07:13:37;;;;;;;3.53;1.40;;;19.90;68.50;;;;;;6237753;23;20016;-77
2022/10/31 07:16:06;;;;;;;2.92;1.60;;;19.90;68.40;;;;;;6185947;23;20024;-75
2022/10/31 07:18:32;;;;;;;2.78;1.70;;;19.90;68.30;;;;;;6185618;23;20058;-77
2022/10/31 07:20:57;;;;;;;4.82;1.63;;;19.90;68.30;;;;;;6210080;23;20387;-78
2022/10/31 07:23:23;;;;;;;4.35;1.58;;;19.90;68.30;;;;;;6207156;23;20119;-77
2022/10/31 07:25:53;;;;;;;2.60;1.38;;;19.90;68.40;;;;;;6209550;23;20027;-82
2022/10/31 07:28:19;;;;;;;3.53;1.30;;;20.00;68.40;;;;;;6211062;23;20016;-77
2022/10/31 07:30:50;;;;;;;7.10;1.80;;;19.90;68.30;;;;;;6211072;23;20387;-78
2022/10/31 07:33:16;;;;;;;4.03;1.50;;;19.90;68.30;;;;;;6210625;23;20020;-77
2022/10/31 07:35:42;;;;;;;4.65;1.48;;;20.00;68.20;;;;;;6239123;23;20023;-76
2022/10/31 07:38:12;;;;;;;2.58;1.50;;;20.00;68.20;;;;;;6236576;23;20012;-81
2022/10/31 07:40:38;;;;;;;2.72;1.20;;;20.10;68.20;;;;;;6211185;23;20158;-79
2022/10/31 07:43:04;;;;;;;3.75;1.48;;;20.00;68.00;;;;;;6208939;23;20047;-81
2022/10/31 07:45:30;;;;;;;5.45;1.35;;;20.10;67.80;;;;;;6210603;23;20020;-79
2022/10/31 07:47:55;;;;;;;3.05;2.05;;;20.10;67.50;;;;;;6208284;23;20096;-80
2022/10/31 07:50:24;;;;;;;4.28;1.58;;;20.10;67.00;;;;;;6210653;23;20531;-80
2022/10/31 07:53:03;;;;;;;;;;;20.10;66.80;;;;;;6209183;23;20333;-80
2022/10/31 07:55:30;;;;;;;3.53;1.63;;;20.10;66.60;;;;;;6185132;23;19916;-77
2022/10/31 07:58:00;;;;;;;3.70;1.65;;;20.10;66.90;;;;;;6236771;23;20062;-80
2022/10/31 08:00:26;;;;;;;4.93;1.88;;;20.20;66.30;;;;;;6209959;23;20020;-79
2022/10/31 08:03:09;;;;;;;5.93;1.73;;;20.20;66.00;;;;;;6209080;23;20081;-79
2022/10/31 08:05:35;;;;;;;5.22;1.77;;;20.20;65.60;;;;;;6236642;23;20103;-78
2022/10/31 08:08:02;;;;;;;3.72;1.70;;;20.20;65.60;;;;;;6185356;23;20046;-78
2022/10/31 08:10:28;;;;;;;6.65;1.58;;;20.20;65.50;;;;;;6209811;23;20024;-77
2022/10/31 08:13:02;;;;;;;4.30;1.85;;;20.20;65.30;;;;;;6236992;23;20459;-78
2022/10/31 08:15:27;;;;;;;2.90;1.80;;;20.20;65.20;;;;;;6210446;23;20019;-80
2022/10/31 08:17:53;;;;;;;9.18;1.90;;;20.20;65.20;;;;;;6207259;23;20032;-85
2022/10/31 08:20:20;;;;;;;5.45;1.80;;;20.20;65.10;;;;;;6186159;23;20019;-80
2022/10/31 08:23:00;;;;;;;4.10;1.40;;;20.20;65.10;;;;;;6235793;23;20024;-84
2022/10/31 08:25:27;;;;;;;3.00;1.60;;;20.20;64.90;;;;;;6185366;23;20034;-79
2022/10/31 08:27:54;;;;;;;4.85;1.50;;;20.30;65.00;;;;;;6235991;23;20020;-79
2022/10/31 08:30:22;;;;;;;5.32;1.67;;;20.30;64.90;;;;;;6209604;23;20024;-81
2022/10/31 08:32:56;;;;;;;3.03;1.50;;;20.30;65.70;;;;;;6236363;23;20070;-79
2022/10/31 08:35:21;;;;;;;6.05;1.40;;;20.30;64.90;;;;;;6226606;23;20024;-76
2022/10/31 08:37:53;;;;;;;5.85;1.90;;;20.30;64.90;;;;;;6228983;23;20016;-84
2022/10/31 08:40:18;;;;;;;5.28;1.77;;;20.30;64.90;;;;;;6204159;23;20020;-76
2022/10/31 08:42:44;;;;;;;5.10;2.63;;;20.30;65.00;;;;;;6206197;23;20020;-76
2022/10/31 08:45:09;;;;;;;4.72;1.77;;;20.30;65.00;;;;;;6202329;23;20030;-77
2022/10/31 08:47:35;;;;;;;5.60;1.67;;;20.40;65.10;;;;;;6202430;23;20067;-78
2022/10/31 08:50:01;;;;;;;3.80;1.63;;;20.40;65.10;;;;;;6203690;23;20020;-80
2022/10/31 08:52:26;;;;;;;5.65;1.60;;;20.40;65.20;;;;;;6203113;23;20031;-78
2022/10/31 08:54:52;;;;;;;2.53;1.88;;;20.40;65.10;;;;;;6201831;23;20024;-80
2022/10/31 08:57:17;;;;;;;3.95;1.70;;;20.40;65.10;;;;;;6228998;23;20085;-79
2022/10/31 08:59:43;;;;;;;5.80;1.80;;;20.40;64.90;;;;;;6202790;23;20329;-76
2022/10/31 09:02:08;;;;;;;5.72;1.88;;;20.40;64.80;;;;;;6230068;23;20027;-77
2022/10/31 09:04:34;;;;;;;4.35;1.80;;;20.40;64.90;;;;;;6203108;23;20022;-76
2022/10/31 09:06:59;;;;;;;3.58;2.00;;;20.40;64.80;;;;;;6228246;23;20095;-71
2022/10/31 09:09:25;;;;;;;4.32;1.90;;;20.40;64.80;;;;;;6229917;23;20019;-73
2022/10/31 09:11:51;;;;;;;4.97;1.80;;;20.30;64.60;;;;;;6227457;23;20023;-72
2022/10/31 09:14:16;;;;;;;4.78;1.70;;;20.40;64.60;;;;;;6177417;23;20105;-73
2022/10/31 09:16:42;;;;;;;3.70;1.63;;;20.30;64.60;;;;;;6227832;23;20024;-77
2022/10/31 09:19:07;;;;;;;10.93;1.70;;;20.40;64.70;;;;;;6177612;23;20551;-73
2022/10/31 09:21:34;;;;;;;5.53;1.55;;;20.40;64.80;;;;;;6206298;23;20020;-74
2022/10/31 09:24:00;;;;;;;6.05;1.55;;;20.40;64.80;;;;;;6204681;23;20013;-73
2022/10/31 09:26:26;;;;;;;3.08;1.38;;;20.40;64.70;;;;;;6207708;23;20445;-73
2022/10/31 09:28:51;;;;;;;3.97;1.90;;;20.40;64.80;;;;;;6204375;23;20069;-73
2022/10/31 09:31:17;;;;;;;5.68;1.95;;;20.40;64.80;;;;;;6204345;23;20028;-73
2022/10/31 09:33:42;;;;;;;2.55;1.80;;;20.40;64.80;;;;;;6230166;23;20464;-73
2022/10/31 09:36:08;;;;;;;5.57;2.30;;;20.40;64.80;;;;;;6203357;23;20039;-74
2022/10/31 09:38:34;;;;;;;10.88;4.32;;;20.40;64.80;;;;;;6233206;23;20023;-73
2022/10/31 09:41:38;;;;;;;11.95;6.68;;;20.40;64.70;;;;;;6204392;23;20027;-76
2022/10/31 09:44:30;;;;;;;14.85;6.90;;;20.30;63.90;;;;;;6206654;23;20024;-71
2022/10/31 09:47:27;;;;;;;9.25;6.10;;;20.20;63.70;;;;;;6179592;23;20376;-71
2022/10/31 09:50:11;;;;;;;10.23;6.10;;;20.20;64.20;;;;;;6202526;23;20775;-72
2022/10/31 09:52:42;;;;;;;9.52;6.25;;;20.10;64.50;;;;;;6206087;23;20024;-74
2022/10/31 09:55:19;;;;;;;10.18;6.97;;;20.10;64.40;;;;;;6203576;23;20436;-72
2022/10/31 09:57:45;;;;;;;9.68;6.65;;;20.00;64.00;;;;;;6204365;23;20016;-73
2022/10/31 10:00:17;;;;;;;12.02;6.88;;;20.00;63.90;;;;;;6205444;23;20099;-73
2022/10/31 10:02:49;;;;;;;10.73;7.20;;;19.90;63.50;;;;;;6230254;23;20023;-72
2022/10/31 10:05:23;;;;;;;11.55;7.13;;;19.90;63.50;;;;;;6233584;23;20469;-73
2022/10/31 10:08:25;;;;;;;11.10;7.15;;;19.80;63.50;;;;;;6231195;23;20100;-73
2022/10/31 10:11:29;;;;;;;11.32;6.03;;;19.80;63.40;;;;;;6126983;23;20125;-73
2022/10/31 10:14:16;;;;;;;12.77;6.80;;;19.70;63.70;;;;;;6199794;23;20028;-74
2022/10/31 10:17:00;;;;;;;9.52;6.72;;;19.70;64.10;;;;;;6204868;23;20061;-72
2022/10/31 10:20:04;;;;;;;13.88;7.13;;;19.70;64.00;;;;;;6205127;23;20008;-73
2022/10/31 10:22:39;;;;;;;13.40;6.63;;;19.60;63.60;;;;;;6235070;23;20062;-75
2022/10/31 10:25:14;;;;;;;12.75;6.60;;;19.60;64.00;;;;;;6206372;23;20043;-72
2022/10/31 10:27:58;;;;;;;10.43;5.82;;;19.60;64.20;;;;;;6205558;23;20020;-71
2022/10/31 10:30:33;;;;;;;10.90;6.40;;;19.60;64.20;;;;;;6207856;23;20458;-74
2022/10/31 10:33:04;;;;;;;12.70;6.82;;;19.60;63.90;;;;;;6202972;23;20035;-73
2022/10/31 10:35:47;;;;;;;13.38;6.93;;;19.60;63.70;;;;;;6207987;23;20023;-74
2022/10/31 10:38:16;;;;;;;11.35;6.53;;;19.60;63.60;;;;;;6232594;23;20020;-73
2022/10/31 10:40:42;;;;;;;11.05;5.95;;;19.50;63.60;;;;;;6238066;23;20480;-73
2022/10/31 10:43:35;;;;;;;9.20;6.07;;;19.50;63.70;;;;;;6235993;23;20055;-72
2022/10/31 10:49:31;;;;;;;7.30;4.13;;;19.60;64.30;;;;;;6209300;23;20028;-74
2022/10/31 10:52:00;;;;;;;10.18;4.00;;;19.60;64.20;;;;;;6238713;23;20024;-74
2022/10/31 10:54:53;;;;;;;8.75;3.75;;;19.60;64.00;;;;;;6211271;23;20020;-74
2022/10/31 10:57:40;;;;;;;7.05;3.67;;;19.70;63.90;;;;;;6211983;23;20031;-73
2022/10/31 11:00:25;;;;;;;9.30;3.63;;;19.80;64.00;;;;;;6210364;23;20539;-72
2022/10/31 11:02:51;;;;;;;8.30;3.05;;;19.90;64.10;;;;;;6208443;23;20027;-72
2022/10/31 11:05:39;;;;;;;8.23;2.85;;;19.90;64.00;;;;;;6184532;23;20101;-73
2022/10/31 11:08:06;;;;;;;9.20;2.67;;;19.90;63.90;;;;;;6233524;23;20016;-74
2022/10/31 11:10:33;;;;;;;8.15;2.58;;;20.00;63.90;;;;;;6212070;23;20098;-73
2022/10/31 11:13:04;;;;;;;9.38;2.85;;;20.00;64.00;;;;;;6211511;23;20016;-75
2022/10/31 11:15:34;;;;;;;7.93;2.75;;;20.00;64.00;;;;;;6209617;23;20027;-76
2022/10/31 11:18:01;;;;;;;8.65;2.50;;;20.00;64.80;;;;;;6237881;23;20458;-74
2022/10/31 11:20:31;;;;;;;3.72;2.20;;;20.10;64.80;;;;;;6236589;23;20020;-73
2022/10/31 11:23:15;;;;;;;5.97;2.67;;;20.10;64.90;;;;;;6212340;23;20016;-75
2022/10/31 11:25:58;;;;;;;3.53;2.17;;;20.10;64.10;;;;;;6210798;23;20492;-74
2022/10/31 11:28:25;;;;;;;8.88;2.72;;;20.20;64.30;;;;;;6210987;23;20021;-75
2022/10/31 11:30:54;;;;;;;4.53;2.20;;;20.20;64.20;;;;;;6238345;23;20051;-75
2022/10/31 11:33:30;;;;;;;5.00;2.03;;;20.20;64.10;;;;;;6183963;23;20028;-76
2022/10/31 11:35:57;;;;;;;6.97;2.42;;;20.10;64.20;;;;;;6238094;23;20024;-73
2022/10/31 11:38:26;;;;;;;6.47;2.15;;;20.20;64.20;;;;;;6210159;23;20043;-75
2022/10/31 11:40:54;;;;;;;4.18;2.10;;;20.20;64.20;;;;;;6238295;23;20474;-75
2022/10/31 11:43:20;;;;;;;5.35;2.42;;;20.20;64.10;;;;;;6236129;23;20074;-76
2022/10/31 11:45:46;;;;;;;5.43;2.00;;;20.20;64.10;;;;;;6237752;23;20444;-74
2022/10/31 11:48:23;;;;;;;8.38;2.30;;;20.20;64.10;;;;;;6209690;23;20016;-74
2022/10/31 11:50:56;;;;;;;4.75;2.30;;;20.20;64.80;;;;;;6237277;23;20051;-74
2022/10/31 11:53:29;;;;;;;4.57;2.17;;;20.20;64.00;;;;;;6210781;23;20016;-73
2022/10/31 11:56:12;;;;;;;3.38;2.10;;;20.20;64.00;;;;;;6236580;23;20017;-74
2022/10/31 11:58:37;;;;;;;4.57;2.03;;;20.20;64.30;;;;;;6236594;23;20337;-74
2022/10/31 12:01:03;;;;;;;4.20;2.15;;;20.20;64.30;;;;;;6209867;23;20035;-72
2022/10/31 12:03:41;;;;;;;4.80;2.08;;;20.20;64.70;;;;;;6236165;23;20325;-73
2022/10/31 12:06:13;;;;;;;5.60;2.20;;;20.20;64.60;;;;;;6211671;23;20430;-76
2022/10/31 12:08:40;;;;;;;5.90;2.40;;;20.20;64.40;;;;;;6237015;23;20387;-72
2022/10/31 12:11:31;;;;;;;5.10;2.10;;;20.20;64.40;;;;;;6211693;23;20024;-71
2022/10/31 12:14:15;;;;;;;7.45;2.28;;;20.20;64.30;;;;;;6210871;23;20503;-70
2022/10/31 12:17:06;;;;;;;6.32;2.45;;;20.20;64.30;;;;;;6210061;23;20095;-71
2022/10/31 12:20:12;;;;;;;5.72;2.50;;;20.20;64.10;;;;;;6235589;23;20086;-72
2022/10/31 12:23:02;;;;;;;7.90;4.10;;;20.20;64.20;;;;;;6204653;23;20494;-72
2022/10/31 12:25:37;;;;;;;9.57;3.92;;;20.20;64.00;;;;;;6203464;23;20099;-71
2022/10/31 12:28:32;;;;;;;12.27;5.05;;;20.10;63.60;;;;;;6204933;23;20074;-72
2022/10/31 12:31:19;;;;;;;8.75;4.88;;;20.10;63.30;;;;;;6206428;23;20471;-72
2022/10/31 12:34:17;;;;;;;13.50;5.63;;;20.00;63.10;;;;;;6201859;23;20028;-73
2022/10/31 12:37:12;;;;;;;10.13;5.75;;;20.00;63.00;;;;;;6205853;23;20054;-73
2022/10/31 12:40:05;;;;;;;11.35;5.85;;;20.00;63.00;;;;;;6231030;23;20024;-72
2022/10/31 12:42:59;;;;;;;8.80;4.80;;;19.90;63.10;;;;;;6230906;23;20020;-73
2022/10/31 12:45:53;;;;;;;11.80;5.13;;;19.90;63.40;;;;;;6203362;23;20554;-73
2022/10/31 12:48:44;;;;;;;9.52;4.70;;;19.90;63.60;;;;;;6203639;23;20020;-73
2022/10/31 12:51:15;;;;;;;11.43;4.32;;;19.90;63.60;;;;;;6205290;23;20101;-74
2022/10/31 12:54:05;;;;;;;10.90;4.13;;;19.90;63.60;;;;;;6204269;23;20533;-73
2022/10/31 12:56:48;;;;;;;7.82;4.20;;;19.90;63.60;;;;;;6204584;23;20020;-74
2022/10/31 12:59:35;;;;;;;6.88;3.92;;;19.90;63.70;;;;;;6231493;23;20653;-72
2022/10/31 13:02:54;;;;;;;10.25;3.92;;;19.90;63.70;;;;;;6206920;23;20027;-77
2022/10/31 13:05:32;;;;;;;11.73;3.75;;;19.90;63.70;;;;;;6142038;23;20024;-73
2022/10/31 13:08:14;;;;;;;8.45;3.85;;;19.90;63.90;;;;;;6206717;23;20020;-72
2022/10/31 13:10:52;;;;;;;12.77;3.80;;;19.90;63.70;;;;;;6205723;23;20411;-72
2022/10/31 13:13:30;;;;;;;5.63;3.03;;;20.00;63.60;;;;;;6204618;23;20452;-77